createdAt,value
2018-04-18T00:01:44.350Z,68.18
2018-04-18T00:04:12.135Z,68.18
2018-04-18T00:06:39.786Z,68.26
2018-04-18T00:09:07.727Z,68.37
2018-04-18T00:11:35.591Z,68.52
2018-04-18T00:14:03.580Z,68.53
2018-04-18T00:16:31.189Z,68.62
2018-04-18T00:18:59.096Z,68.79
2018-04-18T00:21:26.718Z,68.98
2018-04-18T00:23:54.337Z,68.98
2018-04-18T00:26:21.958Z,69.00
2018-04-18T00:28:49.664Z,69.05
2018-04-18T00:31:17.281Z,69.16
2018-04-18T00:33:44.930Z,69.24
2018-04-18T00:36:12.640Z,69.35
2018-04-18T00:38:40.923Z,69.44
2018-04-18T00:41:08.604Z,69.64
2018-04-18T00:43:36.351Z,69.74
2018-04-18T00:46:03.951Z,69.83
2018-04-18T00:48:32.262Z,70.00
2018-04-18T00:50:59.878Z,70.13
2018-04-18T00:53:27.596Z,70.18
2018-04-18T00:55:55.208Z,70.20
2018-04-18T00:58:22.950Z,70.37
2018-04-18T01:00:50.580Z,70.54
2018-04-18T01:03:18.344Z,70.63
2018-04-18T01:05:45.994Z,70.75
2018-04-18T01:08:13.984Z,70.95
2018-04-18T01:10:41.648Z,71.20
2018-04-18T01:13:09.297Z,71.35
2018-04-18T01:15:36.979Z,71.33
2018-04-18T01:18:04.651Z,71.37
2018-04-18T01:20:32.404Z,71.60
2018-04-18T01:22:59.984Z,71.71
2018-04-18T01:25:27.731Z,71.72
2018-04-18T01:27:55.748Z,71.87
2018-04-18T01:30:23.399Z,71.95
2018-04-18T01:32:51.116Z,72.09
2018-04-18T01:35:18.814Z,72.08
2018-04-18T01:37:46.422Z,72.06
2018-04-18T01:40:14.112Z,72.08
2018-04-18T01:42:42.780Z,72.09
2018-04-18T01:45:10.506Z,72.20
2018-04-18T01:47:38.123Z,72.32
2018-04-18T01:50:05.699Z,72.47
2018-04-18T01:52:33.741Z,72.51
2018-04-18T01:55:02.143Z,72.44
2018-04-18T01:57:29.853Z,72.49
2018-04-18T01:59:57.552Z,72.56
2018-04-18T02:02:25.169Z,72.58
2018-04-18T02:04:52.956Z,72.62
2018-04-18T02:07:20.587Z,72.60
2018-04-18T02:09:48.466Z,72.72
2018-04-18T02:12:16.178Z,72.74
2018-04-18T02:14:43.945Z,72.69
2018-04-18T02:17:11.738Z,72.72
2018-04-18T02:19:39.354Z,72.73
2018-04-18T02:22:07.084Z,72.89
2018-04-18T02:24:34.750Z,72.94
2018-04-18T02:27:02.431Z,72.94
2018-04-18T02:29:30.132Z,72.97
2018-04-18T02:31:57.819Z,72.96
2018-04-18T02:34:25.551Z,72.95
2018-04-18T02:36:53.308Z,73.11
2018-04-18T02:39:21.013Z,73.19
2018-04-18T02:41:48.667Z,73.37
2018-04-18T02:44:16.316Z,73.46
2018-04-18T02:46:44.067Z,73.55
2018-04-18T02:49:11.761Z,73.73
2018-04-18T02:51:39.694Z,73.88
2018-04-18T02:54:07.393Z,73.95
2018-04-18T02:56:35.028Z,74.05
2018-04-18T02:59:02.696Z,74.15
2018-04-18T03:01:30.298Z,74.43
2018-04-18T03:03:58.310Z,74.54
2018-04-18T03:06:25.980Z,74.45
2018-04-18T03:08:53.697Z,74.41
2018-04-18T03:11:21.352Z,74.43
2018-04-18T03:13:48.986Z,74.58
2018-04-18T03:16:16.616Z,74.71
2018-04-18T03:18:44.273Z,74.72
2018-04-18T03:21:11.891Z,74.73
2018-04-18T03:23:39.571Z,74.70
2018-04-18T03:26:07.233Z,74.80
2018-04-18T03:28:34.821Z,74.94
2018-04-18T03:31:02.438Z,75.05
2018-04-18T03:33:30.082Z,75.11
2018-04-18T03:35:57.736Z,75.14
2018-04-18T03:38:25.787Z,75.23
2018-04-18T03:40:53.651Z,75.27
2018-04-18T03:43:21.261Z,75.27
2018-04-18T03:45:48.881Z,75.36
2018-04-18T03:48:16.547Z,75.45
2018-04-18T03:50:44.274Z,75.59
2018-04-18T03:53:11.972Z,75.70
2018-04-18T03:55:39.622Z,75.99
2018-04-18T03:58:07.422Z,76.01
2018-04-18T04:00:35.095Z,76.05
2018-04-18T04:03:02.743Z,76.08
2018-04-18T04:05:30.687Z,76.10
2018-04-18T04:07:58.272Z,76.13
2018-04-18T04:10:25.990Z,76.24
2018-04-18T04:12:53.585Z,76.35
2018-04-18T04:15:21.325Z,76.45
2018-04-18T04:18:00.835Z,76.48
2018-04-18T04:20:40.653Z,76.50
2018-04-18T04:23:20.091Z,76.74
2018-04-18T04:25:47.820Z,76.83
2018-04-18T04:28:15.495Z,76.98
2018-04-18T04:30:43.321Z,77.10
2018-04-18T04:33:11.052Z,77.13
2018-04-18T04:35:38.705Z,77.14
2018-04-18T04:38:06.350Z,77.17
2018-04-18T04:40:33.946Z,77.19
2018-04-18T04:43:01.996Z,77.27
2018-04-18T04:45:29.612Z,77.43
2018-04-18T04:47:57.634Z,77.47
2018-04-18T04:50:26.202Z,77.62
2018-04-18T04:52:53.970Z,77.71
2018-04-18T04:55:21.685Z,77.80
2018-04-18T04:57:49.331Z,77.93
2018-04-18T05:00:16.992Z,78.14
2018-04-18T05:02:44.653Z,78.24
2018-04-18T05:05:12.507Z,78.34
2018-04-18T05:07:40.271Z,78.46
2018-04-18T05:10:07.868Z,78.61
2018-04-18T05:12:35.520Z,78.77
2018-04-18T05:15:03.243Z,78.92
2018-04-18T05:17:30.880Z,79.07
2018-04-18T05:19:58.505Z,79.21
2018-04-18T05:22:26.140Z,79.37
2018-04-18T05:24:53.731Z,79.57
2018-04-18T05:27:21.764Z,79.73
2018-04-18T05:29:49.537Z,80.03
2018-04-18T05:32:17.541Z,80.45
2018-04-18T05:34:45.289Z,80.53
2018-04-18T05:37:12.985Z,80.64
2018-04-18T05:39:40.587Z,80.97
2018-04-18T05:42:08.247Z,81.43
2018-04-18T05:44:35.885Z,81.82
2018-04-18T05:47:03.479Z,81.93
2018-04-18T05:49:31.421Z,81.94
2018-04-18T05:51:59.107Z,81.81
2018-04-18T05:54:26.818Z,81.67
2018-04-18T05:56:54.722Z,81.61
2018-04-18T05:59:23.219Z,81.44
2018-04-18T06:01:50.817Z,81.23
2018-04-18T06:04:18.447Z,81.01
2018-04-18T06:06:46.298Z,80.72
2018-04-18T06:09:13.906Z,80.68
2018-04-18T06:11:41.596Z,80.53
2018-04-18T06:14:09.188Z,80.96
2018-04-18T06:16:36.944Z,80.78
2018-04-18T06:19:04.556Z,80.44
2018-04-18T06:21:32.140Z,80.08
2018-04-18T06:23:59.813Z,79.82
2018-04-18T06:26:27.416Z,79.56
2018-04-18T06:28:55.348Z,79.44
2018-04-18T06:31:22.930Z,79.41
2018-04-18T06:33:50.545Z,79.35
2018-04-18T06:36:18.238Z,79.32
2018-04-18T06:38:46.087Z,79.32
2018-04-18T06:41:13.846Z,78.90
2018-04-18T06:43:41.429Z,78.12
2018-04-18T06:46:09.092Z,77.52
2018-04-18T06:48:36.700Z,77.31
2018-04-18T06:51:04.506Z,76.97
2018-04-18T06:53:32.097Z,76.40
2018-04-18T06:56:00.019Z,75.20
2018-04-18T06:58:27.687Z,75.02
2018-04-18T07:00:55.282Z,74.90
2018-04-18T07:03:22.970Z,74.18
2018-04-18T07:05:51.411Z,73.19
2018-04-18T07:08:19.068Z,70.67
2018-04-18T07:10:46.694Z,70.21
2018-04-18T07:13:14.411Z,68.96
2018-04-18T07:15:42.022Z,68.35
2018-04-18T07:18:09.938Z,68.21
2018-04-18T07:20:37.648Z,67.28
2018-04-18T07:23:05.264Z,66.75
2018-04-18T07:25:33.223Z,65.22
2018-04-18T07:28:00.819Z,65.21
2018-04-18T07:30:28.987Z,64.50
2018-04-18T07:32:56.716Z,64.42
2018-04-18T07:35:24.444Z,63.27
2018-04-18T07:37:52.064Z,63.07
2018-04-18T07:40:19.661Z,63.02
2018-04-18T07:42:47.285Z,62.47
2018-04-18T07:45:14.941Z,60.47
2018-04-18T07:47:42.570Z,59.93
2018-04-18T07:50:10.466Z,60.09
2018-04-18T07:52:38.071Z,59.75
2018-04-18T07:55:06.155Z,59.29
2018-04-18T07:57:33.888Z,59.26
2018-04-18T08:00:01.491Z,58.56
2018-04-18T08:02:29.126Z,58.64
2018-04-18T08:04:57.069Z,57.87
2018-04-18T08:07:24.866Z,56.91
2018-04-18T08:09:52.558Z,55.72
2018-04-18T08:12:20.164Z,56.07
2018-04-18T08:14:47.885Z,55.63
2018-04-18T08:17:15.581Z,54.75
2018-04-18T08:19:43.250Z,53.90
2018-04-18T08:22:11.319Z,52.94
2018-04-18T08:24:39.192Z,52.56
2018-04-18T08:27:06.871Z,49.61
2018-04-18T08:29:34.589Z,50.63
2018-04-18T08:32:02.199Z,50.49
2018-04-18T08:34:29.995Z,47.75
2018-04-18T08:36:57.895Z,47.12
2018-04-18T08:39:25.573Z,47.15
2018-04-18T08:41:53.188Z,46.12
2018-04-18T08:44:20.856Z,46.45
2018-04-18T08:46:48.503Z,45.36
2018-04-18T08:49:16.193Z,44.97
2018-04-18T08:51:43.806Z,43.43
2018-04-18T08:54:11.447Z,43.17
2018-04-18T08:59:16.693Z,44.95
2018-04-18T09:01:44.289Z,42.95
2018-04-18T09:04:12.300Z,42.71
2018-04-18T09:06:40.105Z,42.91
2018-04-18T09:09:07.760Z,42.62
2018-04-18T09:11:35.814Z,42.07
2018-04-18T09:14:03.432Z,41.99
2018-04-18T09:16:31.265Z,42.38
2018-04-18T09:18:58.959Z,41.42
2018-04-18T09:21:26.556Z,39.03
2018-04-18T09:23:54.291Z,40.45
2018-04-18T09:26:21.933Z,40.55
2018-04-18T09:28:49.649Z,40.11
2018-04-18T09:31:17.250Z,40.62
2018-04-18T09:33:44.843Z,39.56
2018-04-18T09:36:12.529Z,37.03
2018-04-18T09:38:40.120Z,36.93
2018-04-18T09:41:08.169Z,36.91
2018-04-18T09:43:36.256Z,38.94
2018-04-18T09:46:04.210Z,35.82
2018-04-18T09:48:31.862Z,36.69
2018-04-18T09:50:59.520Z,35.25
2018-04-18T09:53:27.377Z,35.22
2018-04-18T09:55:55.034Z,35.02
2018-04-18T09:58:23.020Z,35.84
2018-04-18T10:00:56.552Z,34.19
2018-04-18T10:03:24.827Z,36.45
2018-04-18T10:05:52.483Z,32.43
2018-04-18T10:08:20.074Z,33.78
2018-04-18T10:10:47.734Z,33.34
2018-04-18T10:13:15.385Z,34.30
2018-04-18T10:15:43.266Z,33.69
2018-04-18T10:18:10.880Z,34.56
2018-04-18T10:20:38.577Z,34.00
2018-04-18T10:23:06.280Z,31.12
2018-04-18T10:25:33.941Z,31.18
2018-04-18T10:28:01.521Z,31.70
2018-04-18T10:30:29.495Z,31.38
2018-04-18T10:32:57.072Z,31.60
2018-04-18T10:35:24.684Z,30.69
2018-04-18T10:37:52.595Z,30.61
2018-04-18T10:40:20.575Z,28.50
2018-04-18T10:42:48.251Z,28.57
2018-04-18T10:45:16.107Z,28.95
2018-04-18T10:47:43.756Z,28.29
2018-04-18T10:50:11.365Z,29.25
2018-04-18T10:52:39.014Z,28.90
2018-04-18T10:55:06.640Z,29.77
2018-04-18T10:57:34.252Z,29.34
2018-04-18T11:00:01.855Z,29.51
2018-04-18T11:02:29.467Z,28.17
2018-04-18T11:04:57.767Z,28.59
2018-04-18T11:07:25.636Z,29.39
2018-04-18T11:09:53.289Z,29.29
2018-04-18T11:12:21.204Z,29.49
2018-04-18T11:14:48.983Z,29.30
2018-04-18T11:17:16.972Z,28.79
2018-04-18T11:19:44.653Z,27.25
2018-04-18T11:22:12.571Z,28.27
2018-04-18T11:24:40.580Z,27.75
2018-04-18T11:27:08.265Z,25.66
2018-04-18T11:29:35.914Z,26.18
2018-04-18T11:32:03.524Z,26.21
2018-04-18T11:34:31.178Z,26.08
2018-04-18T11:36:58.827Z,26.14
2018-04-18T11:39:26.410Z,26.47
2018-04-18T11:41:54.027Z,26.65
2018-04-18T11:44:21.622Z,27.04
2018-04-18T11:46:49.295Z,25.86
2018-04-18T11:49:16.950Z,25.37
2018-04-18T11:51:44.559Z,25.13
2018-04-18T11:54:12.217Z,25.17
2018-04-18T11:56:39.967Z,25.34
2018-04-18T11:59:07.584Z,25.81
2018-04-18T12:01:35.240Z,24.94
2018-04-18T12:04:02.859Z,24.36
2018-04-18T12:06:30.490Z,23.63
2018-04-18T12:08:58.080Z,23.53
2018-04-18T12:11:26.049Z,23.06
2018-04-18T12:13:53.737Z,23.73
2018-04-18T12:16:21.531Z,24.45
2018-04-18T12:18:49.120Z,24.74
2018-04-18T12:21:16.739Z,23.72
2018-04-18T12:23:44.697Z,24.10
2018-04-18T12:26:12.296Z,24.39
2018-04-18T12:28:39.982Z,24.68
2018-04-18T12:31:07.658Z,24.57
2018-04-18T12:33:35.281Z,22.74
2018-04-18T12:36:03.041Z,23.45
2018-04-18T12:38:30.734Z,22.30
2018-04-18T12:40:58.346Z,23.02
2018-04-18T12:43:26.005Z,23.45
2018-04-18T12:45:53.592Z,23.89
2018-04-18T12:48:21.639Z,22.12
2018-04-18T12:50:49.276Z,21.73
2018-04-18T12:53:17.109Z,22.04
2018-04-18T12:55:44.789Z,21.86
2018-04-18T12:58:12.374Z,21.63
2018-04-18T13:00:39.989Z,21.94
2018-04-18T13:03:07.667Z,22.01
2018-04-18T13:05:35.357Z,23.19
2018-04-18T13:08:03.101Z,21.42
2018-04-18T13:10:30.717Z,21.66
2018-04-18T13:12:58.323Z,21.18
2018-04-18T13:15:26.667Z,21.63
2018-04-18T13:17:54.476Z,20.75
2018-04-18T13:20:22.309Z,20.52
2018-04-18T13:22:50.047Z,21.34
2018-04-18T13:25:17.707Z,20.88
2018-04-18T13:27:45.700Z,22.20
2018-04-18T13:30:13.352Z,21.80
2018-04-18T13:32:41.415Z,21.31
2018-04-18T13:35:09.045Z,21.40
2018-04-18T13:37:36.735Z,21.33
2018-04-18T13:40:04.412Z,20.94
2018-04-18T13:42:32.036Z,20.67
2018-04-18T13:45:00.191Z,21.14
2018-04-18T13:47:27.822Z,20.52
2018-04-18T13:49:55.808Z,21.37
2018-04-18T13:52:23.428Z,21.33
2018-04-18T13:54:51.438Z,21.02
2018-04-18T13:57:19.236Z,19.94
2018-04-18T13:59:46.815Z,19.75
2018-04-18T14:02:14.931Z,19.38
2018-04-18T14:04:42.654Z,20.33
2018-04-18T14:07:10.664Z,20.20
2018-04-18T14:09:38.824Z,19.76
2018-04-18T14:12:06.706Z,19.91
2018-04-18T14:14:34.358Z,19.71
2018-04-18T14:17:02.402Z,18.59
2018-04-18T14:19:30.131Z,18.46
2018-04-18T14:21:58.069Z,19.26
2018-04-18T14:24:25.787Z,19.65
2018-04-18T14:26:53.407Z,19.51
2018-04-18T14:29:21.075Z,19.24
2018-04-18T14:31:48.829Z,19.91
2018-04-18T14:34:16.457Z,20.15
2018-04-18T14:36:44.193Z,19.29
2018-04-18T14:39:12.021Z,20.09
2018-04-18T14:41:39.602Z,20.00
2018-04-18T14:44:07.234Z,19.30
2018-04-18T14:46:35.202Z,20.17
2018-04-18T14:49:02.949Z,19.06
2018-04-18T14:51:30.573Z,19.30
2018-04-18T14:53:58.259Z,19.79
2018-04-18T14:56:25.936Z,20.21
2018-04-18T14:58:53.976Z,19.85
2018-04-18T15:01:21.714Z,19.84
2018-04-18T15:03:49.406Z,19.45
2018-04-18T15:06:17.142Z,20.02
2018-04-18T15:08:44.752Z,20.17
2018-04-18T15:11:12.550Z,19.65
2018-04-18T15:13:40.255Z,19.49
2018-04-18T15:16:07.918Z,19.66
2018-04-18T15:18:35.519Z,19.53
2018-04-18T15:21:03.219Z,19.56
2018-04-18T15:23:30.961Z,20.06
2018-04-18T15:25:58.924Z,20.91
2018-04-18T15:28:26.761Z,20.10
2018-04-18T15:30:54.661Z,20.23
2018-04-18T15:33:22.325Z,20.59
2018-04-18T15:35:50.414Z,20.35
2018-04-18T15:38:18.060Z,19.41
2018-04-18T15:40:45.927Z,19.90
2018-04-18T15:43:13.647Z,20.61
2018-04-18T15:45:41.265Z,20.49
2018-04-18T15:48:08.939Z,20.23
2018-04-18T15:50:36.613Z,20.14
2018-04-18T15:53:04.434Z,20.38
2018-04-18T15:55:32.040Z,20.99
2018-04-18T15:58:00.311Z,19.90
2018-04-18T16:00:28.009Z,20.39
2018-04-18T16:02:55.747Z,20.51
2018-04-18T16:05:23.383Z,21.04
2018-04-18T16:07:51.040Z,20.00
2018-04-18T16:10:19.070Z,20.30
2018-04-18T16:12:46.980Z,20.37
2018-04-18T16:15:14.696Z,20.83
2018-04-18T16:17:42.782Z,21.34
2018-04-18T16:20:10.696Z,21.77
2018-04-18T16:22:38.332Z,22.17
2018-04-18T16:25:06.076Z,22.21
2018-04-18T16:27:33.746Z,22.11
2018-04-18T16:30:01.359Z,21.58
2018-04-18T16:32:29.078Z,21.16
2018-04-18T16:34:56.745Z,21.90
2018-04-18T16:37:24.350Z,22.52
2018-04-18T16:39:52.132Z,22.14
2018-04-18T16:42:19.742Z,21.65
2018-04-18T16:44:47.354Z,21.87
2018-04-18T16:47:15.199Z,22.21
2018-04-18T16:49:42.824Z,21.94
2018-04-18T16:52:10.632Z,21.87
2018-04-18T16:54:38.351Z,22.03
2018-04-18T16:57:05.962Z,22.59
2018-04-18T16:59:33.649Z,23.21
2018-04-18T17:02:01.497Z,23.17
2018-04-18T17:04:29.121Z,23.33
2018-04-18T17:06:57.026Z,23.57
2018-04-18T17:09:24.637Z,23.45
2018-04-18T17:11:53.380Z,23.61
2018-04-18T17:14:20.999Z,23.72
2018-04-18T17:16:48.652Z,23.35
2018-04-18T17:19:16.685Z,23.56
2018-04-18T17:21:44.305Z,23.45
2018-04-18T17:24:11.902Z,23.70
2018-04-18T17:26:40.218Z,23.72
2018-04-18T17:29:07.958Z,23.89
2018-04-18T17:31:35.653Z,24.28
2018-04-18T17:34:03.341Z,24.76
2018-04-18T17:36:31.556Z,24.98
2018-04-18T17:38:59.425Z,25.12
2018-04-18T17:41:27.036Z,25.40
2018-04-18T17:43:55.103Z,25.51
2018-04-18T17:46:22.777Z,25.57
2018-04-18T17:48:50.390Z,25.71
2018-04-18T17:51:18.352Z,25.95
2018-04-18T17:53:46.008Z,25.95
2018-04-18T17:56:13.600Z,26.29
2018-04-18T17:58:41.212Z,26.60
2018-04-18T18:01:08.831Z,26.93
2018-04-18T18:03:36.524Z,26.99
2018-04-18T18:06:04.133Z,27.32
2018-04-18T18:08:32.018Z,28.07
2018-04-18T18:10:59.627Z,28.46
2018-04-18T18:13:27.385Z,28.64
2018-04-18T18:15:55.103Z,28.60
2018-04-18T18:18:22.701Z,29.16
2018-04-18T18:20:50.637Z,29.28
2018-04-18T18:23:18.235Z,29.77
2018-04-18T18:25:46.169Z,30.47
2018-04-18T18:28:13.753Z,31.01
2018-04-18T18:30:41.813Z,31.41
2018-04-18T18:33:09.468Z,31.55
2018-04-18T18:35:37.107Z,31.75
2018-04-18T18:38:04.944Z,32.22
2018-04-18T18:40:32.529Z,32.45
2018-04-18T18:43:00.347Z,32.25
2018-04-18T18:45:28.031Z,32.19
2018-04-18T18:47:55.812Z,32.28
2018-04-18T18:50:23.427Z,32.25
2018-04-18T18:52:51.352Z,32.24
2018-04-18T18:55:19.469Z,32.11
2018-04-18T18:57:47.118Z,32.29
2018-04-18T19:00:14.770Z,32.48
2018-04-18T19:02:42.517Z,32.74
2018-04-18T19:05:10.180Z,33.05
2018-04-18T19:07:37.841Z,33.33
2018-04-18T19:10:06.177Z,33.81
2018-04-18T19:12:34.048Z,34.37
2018-04-18T19:15:01.793Z,34.56
2018-04-18T19:17:29.452Z,35.04
2018-04-18T19:19:57.522Z,35.27
2018-04-18T19:22:25.191Z,35.75
2018-04-18T19:24:52.905Z,35.94
2018-04-18T19:27:20.519Z,36.14
2018-04-18T19:29:48.149Z,36.18
2018-04-18T19:32:16.241Z,36.37
2018-04-18T19:34:43.832Z,36.75
2018-04-18T19:37:11.697Z,36.97
2018-04-18T19:39:39.348Z,37.26
2018-04-18T19:42:07.025Z,37.12
2018-04-18T19:44:34.674Z,37.40
2018-04-18T19:47:02.397Z,37.63
2018-04-18T19:49:30.023Z,37.86
2018-04-18T19:51:58.057Z,38.07
2018-04-18T19:54:25.701Z,38.42
2018-04-18T19:56:53.452Z,38.81
2018-04-18T19:59:21.111Z,38.88
2018-04-18T20:01:48.756Z,38.87
2018-04-18T20:04:16.876Z,38.94
2018-04-18T20:06:44.671Z,39.06
2018-04-18T20:09:13.279Z,39.48
2018-04-18T20:11:41.043Z,39.78
2018-04-18T20:14:08.823Z,40.36
2018-04-18T20:16:36.481Z,40.43
2018-04-18T20:19:04.094Z,40.75
2018-04-18T20:21:31.703Z,40.90
2018-04-18T20:23:59.351Z,41.05
2018-04-18T20:26:27.048Z,41.32
2018-04-18T20:28:54.680Z,41.40
2018-04-18T20:31:22.311Z,41.63
2018-04-18T20:33:50.356Z,41.87
2018-04-18T20:36:18.190Z,41.89
2018-04-18T20:38:45.776Z,42.02
2018-04-18T20:41:13.457Z,42.31
2018-04-18T20:43:41.048Z,42.48
2018-04-18T20:46:08.724Z,42.73
2018-04-18T20:48:36.336Z,42.96
2018-04-18T20:51:03.939Z,43.32
2018-04-18T20:53:31.974Z,43.54
2018-04-18T20:55:59.636Z,43.90
2018-04-18T20:58:27.300Z,44.14
2018-04-18T21:00:54.998Z,44.22
2018-04-18T21:03:22.584Z,44.35
2018-04-18T21:05:50.276Z,44.75
2018-04-18T21:08:17.889Z,44.82
2018-04-18T21:10:46.139Z,45.06
2018-04-18T21:13:13.802Z,45.11
2018-04-18T21:15:41.465Z,45.36
2018-04-18T21:18:09.094Z,45.41
2018-04-18T21:20:37.069Z,45.40
2018-04-18T21:23:04.736Z,45.73
2018-04-18T21:25:32.355Z,45.69
2018-04-18T21:28:00.001Z,45.83
2018-04-18T21:30:27.660Z,46.14
2018-04-18T21:32:55.448Z,46.28
2018-04-18T21:35:23.140Z,46.39
2018-04-18T21:37:50.761Z,46.62
2018-04-18T21:40:18.381Z,46.83
2018-04-18T21:42:46.119Z,46.88
2018-04-18T21:47:43.555Z,47.48
2018-04-18T21:50:11.740Z,47.49
2018-04-18T21:52:39.845Z,48.08
2018-04-18T21:55:08.014Z,48.04
2018-04-18T21:57:36.246Z,48.05
2018-04-18T22:00:04.363Z,48.24
2018-04-18T22:02:32.234Z,48.63
2018-04-18T22:04:59.819Z,48.84
2018-04-18T22:07:27.750Z,49.18
2018-04-18T22:09:55.745Z,49.10
2018-04-18T22:12:23.447Z,49.18
2018-04-18T22:14:51.228Z,49.37
2018-04-18T22:17:18.872Z,49.50
2018-04-18T22:19:46.596Z,49.69
2018-04-18T22:22:14.679Z,50.16
2018-04-18T22:24:42.292Z,50.36
2018-04-18T22:27:09.936Z,50.63
2018-04-18T22:29:37.556Z,50.61
2018-04-18T22:32:05.157Z,50.76
2018-04-18T22:34:32.766Z,50.95
2018-04-18T22:37:00.375Z,51.12
2018-04-18T22:39:28.082Z,51.17
2018-04-18T22:41:55.694Z,51.22
2018-04-18T22:44:23.559Z,51.25
2018-04-18T22:46:51.250Z,51.73
2018-04-18T22:49:19.350Z,51.67
2018-04-18T22:51:47.415Z,51.67
2018-04-18T22:54:15.005Z,51.87
2018-04-18T22:56:42.593Z,51.95
2018-04-18T22:59:10.615Z,52.21
2018-04-18T23:01:38.215Z,52.64
2018-04-18T23:04:05.871Z,52.68
2018-04-18T23:06:33.536Z,52.70
2018-04-18T23:09:01.123Z,52.68
2018-04-18T23:11:29.091Z,52.66
2018-04-18T23:13:56.997Z,52.67
2018-04-18T23:16:24.593Z,52.86
2018-04-18T23:18:53.040Z,52.86
2018-04-18T23:21:20.709Z,52.98
2018-04-18T23:23:48.589Z,53.11
2018-04-18T23:26:16.366Z,53.03
2018-04-18T23:28:44.079Z,52.99
2018-04-18T23:31:12.443Z,53.33
2018-04-18T23:33:40.111Z,53.26
2018-04-18T23:36:07.724Z,53.44
2018-04-18T23:38:35.474Z,53.50
2018-04-18T23:41:03.457Z,53.43
2018-04-18T23:43:31.453Z,53.46
2018-04-18T23:45:59.109Z,53.70
2018-04-18T23:48:26.786Z,53.75
2018-04-18T23:50:54.601Z,53.79
2018-04-18T23:53:22.436Z,53.78
2018-04-18T23:55:50.501Z,53.89
2018-04-18T23:58:18.104Z,54.02
